sensor_id;sensor_type;location;lat;lon;timestamp;P1;durP1;ratioP1;P2;durP2;ratioP2
21235;SDS011;10775;42.678;26.324;2023-03-13T00:01:34;5.20;;;2.95;;
21235;SDS011;10775;42.678;26.324;2023-03-13T00:06:26;3.20;;;2.50;;
21235;SDS011;10775;42.678;26.324;2023-03-13T00:11:22;3.30;;;2.38;;
21235;SDS011;10775;42.678;26.324;2023-03-13T00:13:47;4.40;;;3.22;;
21235;SDS011;10775;42.678;26.324;2023-03-13T00:16:14;3.60;;;2.85;;
21235;SDS011;10775;42.678;26.324;2023-03-13T00:18:47;4.97;;;2.70;;
21235;SDS011;10775;42.678;26.324;2023-03-13T00:21:15;3.22;;;2.63;;
21235;SDS011;10775;42.678;26.324;2023-03-13T00:23:42;4.55;;;3.00;;
21235;SDS011;10775;42.678;26.324;2023-03-13T00:26:09;4.70;;;2.88;;
21235;SDS011;10775;42.678;26.324;2023-03-13T00:28:37;1.70;;;1.23;;
21235;SDS011;10775;42.678;26.324;2023-03-13T00:31:04;2.75;;;2.33;;
21235;SDS011;10775;42.678;26.324;2023-03-13T00:33:33;2.58;;;2.05;;
21235;SDS011;10775;42.678;26.324;2023-03-13T00:36:00;5.05;;;2.80;;
21235;SDS011;10775;42.678;26.324;2023-03-13T00:38:28;3.35;;;2.60;;
21235;SDS011;10775;42.678;26.324;2023-03-13T00:41:08;3.50;;;2.17;;
21235;SDS011;10775;42.678;26.324;2023-03-13T00:43:38;4.22;;;2.83;;
21235;SDS011;10775;42.678;26.324;2023-03-13T00:46:05;4.03;;;3.20;;
21235;SDS011;10775;42.678;26.324;2023-03-13T00:48:30;3.40;;;2.67;;
21235;SDS011;10775;42.678;26.324;2023-03-13T00:50:57;4.25;;;2.72;;
21235;SDS011;10775;42.678;26.324;2023-03-13T00:53:23;3.80;;;2.80;;
21235;SDS011;10775;42.678;26.324;2023-03-13T00:58:20;4.00;;;2.80;;
21235;SDS011;10775;42.678;26.324;2023-03-13T01:00:46;1.70;;;1.40;;
21235;SDS011;10775;42.678;26.324;2023-03-13T01:03:11;4.60;;;3.15;;
21235;SDS011;10775;42.678;26.324;2023-03-13T01:05:37;5.93;;;3.20;;
21235;SDS011;10775;42.678;26.324;2023-03-13T01:08:02;2.05;;;1.50;;
21235;SDS011;10775;42.678;26.324;2023-03-13T01:10:28;4.30;;;2.38;;
21235;SDS011;10775;42.678;26.324;2023-03-13T01:12:53;4.53;;;3.25;;
21235;SDS011;10775;42.678;26.324;2023-03-13T01:15:18;3.17;;;1.90;;
21235;SDS011;10775;42.678;26.324;2023-03-13T01:17:44;2.28;;;1.50;;
21235;SDS011;10775;42.678;26.324;2023-03-13T01:20:10;5.28;;;3.10;;
21235;SDS011;10775;42.678;26.324;2023-03-13T01:22:36;4.05;;;3.03;;
21235;SDS011;10775;42.678;26.324;2023-03-13T01:25:02;5.03;;;3.50;;
21235;SDS011;10775;42.678;26.324;2023-03-13T01:27:28;4.22;;;2.78;;
21235;SDS011;10775;42.678;26.324;2023-03-13T01:29:54;3.38;;;1.98;;
21235;SDS011;10775;42.678;26.324;2023-03-13T01:32:19;4.70;;;3.15;;
21235;SDS011;10775;42.678;26.324;2023-03-13T01:34:44;2.40;;;1.67;;
21235;SDS011;10775;42.678;26.324;2023-03-13T01:37:10;3.08;;;2.25;;
21235;SDS011;10775;42.678;26.324;2023-03-13T01:39:35;3.80;;;2.78;;
21235;SDS011;10775;42.678;26.324;2023-03-13T01:42:02;3.67;;;3.20;;
21235;SDS011;10775;42.678;26.324;2023-03-13T01:44:28;6.00;;;4.05;;
21235;SDS011;10775;42.678;26.324;2023-03-13T01:46:54;3.60;;;2.58;;
21235;SDS011;10775;42.678;26.324;2023-03-13T01:49:26;4.85;;;3.00;;
21235;SDS011;10775;42.678;26.324;2023-03-13T01:51:58;3.55;;;2.53;;
21235;SDS011;10775;42.678;26.324;2023-03-13T01:57:04;5.05;;;2.90;;
21235;SDS011;10775;42.678;26.324;2023-03-13T01:59:37;4.63;;;3.33;;
21235;SDS011;10775;42.678;26.324;2023-03-13T02:02:07;4.43;;;2.92;;
21235;SDS011;10775;42.678;26.324;2023-03-13T02:04:37;2.67;;;1.67;;
21235;SDS011;10775;42.678;26.324;2023-03-13T02:07:16;3.30;;;2.30;;
21235;SDS011;10775;42.678;26.324;2023-03-13T02:09:44;6.85;;;2.97;;
21235;SDS011;10775;42.678;26.324;2023-03-13T02:12:17;4.93;;;3.50;;
21235;SDS011;10775;42.678;26.324;2023-03-13T02:14:48;6.10;;;4.03;;
21235;SDS011;10775;42.678;26.324;2023-03-13T02:17:14;3.60;;;2.58;;
21235;SDS011;10775;42.678;26.324;2023-03-13T02:19:49;4.35;;;3.40;;
21235;SDS011;10775;42.678;26.324;2023-03-13T02:27:30;3.08;;;1.88;;
21235;SDS011;10775;42.678;26.324;2023-03-13T02:29:56;4.63;;;3.80;;
21235;SDS011;10775;42.678;26.324;2023-03-13T02:32:24;4.68;;;3.10;;
21235;SDS011;10775;42.678;26.324;2023-03-13T02:34:52;2.50;;;1.88;;
21235;SDS011;10775;42.678;26.324;2023-03-13T02:37:20;5.05;;;3.72;;
21235;SDS011;10775;42.678;26.324;2023-03-13T02:39:47;3.45;;;2.58;;
21235;SDS011;10775;42.678;26.324;2023-03-13T02:42:15;4.25;;;2.40;;
21235;SDS011;10775;42.678;26.324;2023-03-13T02:44:44;5.82;;;3.50;;
21235;SDS011;10775;42.678;26.324;2023-03-13T02:47:11;3.72;;;2.42;;
21235;SDS011;10775;42.678;26.324;2023-03-13T02:49:36;3.50;;;2.30;;
21235;SDS011;10775;42.678;26.324;2023-03-13T02:52:13;2.95;;;2.10;;
21235;SDS011;10775;42.678;26.324;2023-03-13T02:54:42;5.55;;;3.78;;
21235;SDS011;10775;42.678;26.324;2023-03-13T02:57:11;3.90;;;1.88;;
21235;SDS011;10775;42.678;26.324;2023-03-13T02:59:37;3.92;;;2.60;;
21235;SDS011;10775;42.678;26.324;2023-03-13T03:02:02;4.10;;;2.80;;
21235;SDS011;10775;42.678;26.324;2023-03-13T03:04:29;2.78;;;2.17;;
21235;SDS011;10775;42.678;26.324;2023-03-13T03:06:54;5.45;;;3.63;;
21235;SDS011;10775;42.678;26.324;2023-03-13T03:09:21;3.30;;;2.20;;
21235;SDS011;10775;42.678;26.324;2023-03-13T03:11:47;3.75;;;2.13;;
21235;SDS011;10775;42.678;26.324;2023-03-13T03:14:13;2.95;;;1.83;;
21235;SDS011;10775;42.678;26.324;2023-03-13T03:16:38;2.22;;;1.88;;
21235;SDS011;10775;42.678;26.324;2023-03-13T03:19:04;3.65;;;2.08;;
21235;SDS011;10775;42.678;26.324;2023-03-13T03:21:31;2.85;;;2.05;;
21235;SDS011;10775;42.678;26.324;2023-03-13T03:23:56;3.13;;;2.00;;
21235;SDS011;10775;42.678;26.324;2023-03-13T03:26:22;2.80;;;1.75;;
21235;SDS011;10775;42.678;26.324;2023-03-13T03:28:48;3.75;;;2.63;;
21235;SDS011;10775;42.678;26.324;2023-03-13T03:31:14;5.78;;;4.05;;
21235;SDS011;10775;42.678;26.324;2023-03-13T03:33:40;4.45;;;2.88;;
21235;SDS011;10775;42.678;26.324;2023-03-13T03:36:08;6.78;;;3.83;;
21235;SDS011;10775;42.678;26.324;2023-03-13T03:38:35;5.45;;;3.38;;
21235;SDS011;10775;42.678;26.324;2023-03-13T03:41:03;4.18;;;2.65;;
21235;SDS011;10775;42.678;26.324;2023-03-13T03:43:29;3.05;;;1.88;;
21235;SDS011;10775;42.678;26.324;2023-03-13T03:45:55;2.97;;;2.08;;
21235;SDS011;10775;42.678;26.324;2023-03-13T03:48:20;3.13;;;2.15;;
21235;SDS011;10775;42.678;26.324;2023-03-13T03:50:45;3.35;;;2.10;;
21235;SDS011;10775;42.678;26.324;2023-03-13T03:53:11;4.25;;;2.13;;
21235;SDS011;10775;42.678;26.324;2023-03-13T03:55:36;3.80;;;2.25;;
21235;SDS011;10775;42.678;26.324;2023-03-13T03:58:02;2.25;;;1.90;;
21235;SDS011;10775;42.678;26.324;2023-03-13T04:00:28;2.97;;;1.77;;
21235;SDS011;10775;42.678;26.324;2023-03-13T04:02:53;2.80;;;1.90;;
21235;SDS011;10775;42.678;26.324;2023-03-13T04:05:20;3.60;;;2.08;;
21235;SDS011;10775;42.678;26.324;2023-03-13T04:07:46;3.40;;;1.98;;
21235;SDS011;10775;42.678;26.324;2023-03-13T04:10:12;2.58;;;1.70;;
21235;SDS011;10775;42.678;26.324;2023-03-13T04:12:38;4.65;;;1.83;;
21235;SDS011;10775;42.678;26.324;2023-03-13T04:15:04;2.33;;;1.88;;
21235;SDS011;10775;42.678;26.324;2023-03-13T04:17:30;2.15;;;1.65;;
21235;SDS011;10775;42.678;26.324;2023-03-13T04:19:55;3.55;;;1.92;;
21235;SDS011;10775;42.678;26.324;2023-03-13T04:22:21;2.78;;;1.85;;
21235;SDS011;10775;42.678;26.324;2023-03-13T04:24:46;3.05;;;1.85;;
21235;SDS011;10775;42.678;26.324;2023-03-13T04:27:12;4.72;;;2.70;;
21235;SDS011;10775;42.678;26.324;2023-03-13T04:29:37;2.83;;;1.85;;
21235;SDS011;10775;42.678;26.324;2023-03-13T04:32:03;3.10;;;1.88;;
21235;SDS011;10775;42.678;26.324;2023-03-13T04:34:28;3.67;;;1.92;;
21235;SDS011;10775;42.678;26.324;2023-03-13T04:36:54;3.25;;;2.03;;
21235;SDS011;10775;42.678;26.324;2023-03-13T04:39:19;3.33;;;2.30;;
21235;SDS011;10775;42.678;26.324;2023-03-13T04:41:49;4.57;;;2.35;;
21235;SDS011;10775;42.678;26.324;2023-03-13T04:44:16;4.30;;;2.40;;
21235;SDS011;10775;42.678;26.324;2023-03-13T04:46:41;4.40;;;2.70;;
21235;SDS011;10775;42.678;26.324;2023-03-13T04:49:07;4.25;;;2.65;;
21235;SDS011;10775;42.678;26.324;2023-03-13T04:51:32;5.03;;;3.30;;
21235;SDS011;10775;42.678;26.324;2023-03-13T04:53:57;4.75;;;3.15;;
21235;SDS011;10775;42.678;26.324;2023-03-13T04:56:23;7.38;;;3.22;;
21235;SDS011;10775;42.678;26.324;2023-03-13T04:58:50;6.00;;;3.97;;
21235;SDS011;10775;42.678;26.324;2023-03-13T05:01:16;7.10;;;3.60;;
21235;SDS011;10775;42.678;26.324;2023-03-13T05:03:42;7.72;;;4.43;;
21235;SDS011;10775;42.678;26.324;2023-03-13T05:06:07;6.55;;;3.55;;
21235;SDS011;10775;42.678;26.324;2023-03-13T05:08:32;5.25;;;3.45;;
21235;SDS011;10775;42.678;26.324;2023-03-13T05:11:00;7.93;;;4.07;;
21235;SDS011;10775;42.678;26.324;2023-03-13T05:13:26;8.10;;;4.40;;
21235;SDS011;10775;42.678;26.324;2023-03-13T05:15:51;8.80;;;4.28;;
21235;SDS011;10775;42.678;26.324;2023-03-13T05:18:17;7.82;;;4.38;;
21235;SDS011;10775;42.678;26.324;2023-03-13T05:20:42;5.65;;;3.30;;
21235;SDS011;10775;42.678;26.324;2023-03-13T05:23:08;6.30;;;3.50;;
21235;SDS011;10775;42.678;26.324;2023-03-13T05:25:33;5.97;;;3.65;;
21235;SDS011;10775;42.678;26.324;2023-03-13T05:27:58;4.25;;;3.03;;
21235;SDS011;10775;42.678;26.324;2023-03-13T05:30:24;5.82;;;3.65;;
21235;SDS011;10775;42.678;26.324;2023-03-13T05:32:49;5.57;;;4.00;;
21235;SDS011;10775;42.678;26.324;2023-03-13T05:35:15;6.60;;;3.58;;
21235;SDS011;10775;42.678;26.324;2023-03-13T05:37:41;6.35;;;3.70;;
21235;SDS011;10775;42.678;26.324;2023-03-13T05:40:07;7.82;;;3.45;;
21235;SDS011;10775;42.678;26.324;2023-03-13T05:42:33;24.15;;;10.98;;
21235;SDS011;10775;42.678;26.324;2023-03-13T05:44:59;7.28;;;3.75;;
21235;SDS011;10775;42.678;26.324;2023-03-13T05:47:24;7.28;;;3.95;;
21235;SDS011;10775;42.678;26.324;2023-03-13T05:49:50;6.30;;;3.35;;
21235;SDS011;10775;42.678;26.324;2023-03-13T05:52:15;7.65;;;3.85;;
21235;SDS011;10775;42.678;26.324;2023-03-13T05:54:41;5.25;;;3.20;;
21235;SDS011;10775;42.678;26.324;2023-03-13T05:57:06;6.80;;;3.97;;
21235;SDS011;10775;42.678;26.324;2023-03-13T05:59:31;6.82;;;3.55;;
21235;SDS011;10775;42.678;26.324;2023-03-13T06:01:57;7.60;;;3.83;;
21235;SDS011;10775;42.678;26.324;2023-03-13T06:04:22;5.20;;;3.25;;
21235;SDS011;10775;42.678;26.324;2023-03-13T06:06:48;6.28;;;3.50;;
21235;SDS011;10775;42.678;26.324;2023-03-13T06:09:13;4.95;;;3.15;;
21235;SDS011;10775;42.678;26.324;2023-03-13T06:11:39;6.78;;;4.00;;
21235;SDS011;10775;42.678;26.324;2023-03-13T06:14:05;8.68;;;4.47;;
21235;SDS011;10775;42.678;26.324;2023-03-13T06:16:31;7.45;;;4.57;;
21235;SDS011;10775;42.678;26.324;2023-03-13T06:18:56;8.15;;;5.20;;
21235;SDS011;10775;42.678;26.324;2023-03-13T06:21:22;10.13;;;4.72;;
21235;SDS011;10775;42.678;26.324;2023-03-13T06:23:48;7.15;;;4.30;;
21235;SDS011;10775;42.678;26.324;2023-03-13T06:26:13;6.60;;;4.00;;
21235;SDS011;10775;42.678;26.324;2023-03-13T06:28:39;6.35;;;3.83;;
21235;SDS011;10775;42.678;26.324;2023-03-13T06:31:05;5.78;;;3.67;;
21235;SDS011;10775;42.678;26.324;2023-03-13T06:33:32;6.22;;;3.13;;
21235;SDS011;10775;42.678;26.324;2023-03-13T06:35:58;7.80;;;4.03;;
21235;SDS011;10775;42.678;26.324;2023-03-13T06:38:24;4.15;;;2.80;;
21235;SDS011;10775;42.678;26.324;2023-03-13T06:40:50;6.55;;;4.00;;
21235;SDS011;10775;42.678;26.324;2023-03-13T06:43:15;8.25;;;3.67;;
21235;SDS011;10775;42.678;26.324;2023-03-13T06:45:41;5.85;;;3.17;;
21235;SDS011;10775;42.678;26.324;2023-03-13T06:48:07;6.43;;;3.22;;
21235;SDS011;10775;42.678;26.324;2023-03-13T06:50:32;4.95;;;3.13;;
21235;SDS011;10775;42.678;26.324;2023-03-13T06:53:01;4.37;;;2.80;;
21235;SDS011;10775;42.678;26.324;2023-03-13T06:55:27;6.40;;;3.53;;
21235;SDS011;10775;42.678;26.324;2023-03-13T06:57:52;6.15;;;3.20;;
21235;SDS011;10775;42.678;26.324;2023-03-13T07:00:18;5.57;;;3.13;;
21235;SDS011;10775;42.678;26.324;2023-03-13T07:02:44;4.80;;;2.90;;
21235;SDS011;10775;42.678;26.324;2023-03-13T07:05:10;3.42;;;2.53;;
21235;SDS011;10775;42.678;26.324;2023-03-13T07:07:35;6.28;;;3.15;;
21235;SDS011;10775;42.678;26.324;2023-03-13T07:10:01;3.38;;;2.60;;
21235;SDS011;10775;42.678;26.324;2023-03-13T07:12:26;4.47;;;3.05;;
21235;SDS011;10775;42.678;26.324;2023-03-13T07:14:52;6.57;;;3.35;;
21235;SDS011;10775;42.678;26.324;2023-03-13T07:17:17;3.72;;;2.78;;
21235;SDS011;10775;42.678;26.324;2023-03-13T07:19:43;3.80;;;2.53;;
21235;SDS011;10775;42.678;26.324;2023-03-13T07:22:08;3.95;;;2.50;;
21235;SDS011;10775;42.678;26.324;2023-03-13T07:24:34;5.63;;;2.80;;
21235;SDS011;10775;42.678;26.324;2023-03-13T07:26:59;9.95;;;3.30;;
21235;SDS011;10775;42.678;26.324;2023-03-13T07:29:25;5.20;;;2.53;;
21235;SDS011;10775;42.678;26.324;2023-03-13T07:31:50;5.40;;;2.53;;
21235;SDS011;10775;42.678;26.324;2023-03-13T07:34:16;5.05;;;2.70;;
21235;SDS011;10775;42.678;26.324;2023-03-13T07:36:41;4.90;;;2.78;;
21235;SDS011;10775;42.678;26.324;2023-03-13T07:39:07;6.18;;;2.85;;
21235;SDS011;10775;42.678;26.324;2023-03-13T07:41:33;5.00;;;2.90;;
21235;SDS011;10775;42.678;26.324;2023-03-13T07:43:58;6.10;;;3.03;;
21235;SDS011;10775;42.678;26.324;2023-03-13T07:46:24;4.97;;;2.47;;
21235;SDS011;10775;42.678;26.324;2023-03-13T07:48:50;5.57;;;2.65;;
21235;SDS011;10775;42.678;26.324;2023-03-13T07:51:21;4.35;;;2.78;;
21235;SDS011;10775;42.678;26.324;2023-03-13T07:53:49;2.53;;;1.40;;
21235;SDS011;10775;42.678;26.324;2023-03-13T07:56:16;6.25;;;2.72;;
21235;SDS011;10775;42.678;26.324;2023-03-13T07:58:43;5.28;;;2.33;;
21235;SDS011;10775;42.678;26.324;2023-03-13T08:03:36;3.40;;;2.10;;
21235;SDS011;10775;42.678;26.324;2023-03-13T08:06:04;4.25;;;2.25;;
21235;SDS011;10775;42.678;26.324;2023-03-13T08:08:31;2.97;;;1.83;;
21235;SDS011;10775;42.678;26.324;2023-03-13T08:11:07;3.78;;;1.85;;
21235;SDS011;10775;42.678;26.324;2023-03-13T08:13:34;2.30;;;1.63;;
21235;SDS011;10775;42.678;26.324;2023-03-13T08:16:05;4.70;;;2.47;;
21235;SDS011;10775;42.678;26.324;2023-03-13T08:18:35;6.10;;;2.90;;
21235;SDS011;10775;42.678;26.324;2023-03-13T08:21:04;6.65;;;2.80;;
21235;SDS011;10775;42.678;26.324;2023-03-13T08:23:32;4.75;;;2.85;;
21235;SDS011;10775;42.678;26.324;2023-03-13T08:26:01;4.80;;;2.88;;
21235;SDS011;10775;42.678;26.324;2023-03-13T08:28:34;7.82;;;2.83;;
21235;SDS011;10775;42.678;26.324;2023-03-13T08:33:32;6.88;;;3.30;;
21235;SDS011;10775;42.678;26.324;2023-03-13T08:35:57;6.90;;;3.58;;
21235;SDS011;10775;42.678;26.324;2023-03-13T08:38:22;6.90;;;2.60;;
21235;SDS011;10775;42.678;26.324;2023-03-13T08:40:48;5.90;;;3.22;;
21235;SDS011;10775;42.678;26.324;2023-03-13T08:43:14;9.60;;;3.05;;
21235;SDS011;10775;42.678;26.324;2023-03-13T08:45:40;4.97;;;2.78;;
21235;SDS011;10775;42.678;26.324;2023-03-13T08:48:05;4.88;;;3.20;;
21235;SDS011;10775;42.678;26.324;2023-03-13T08:50:30;6.00;;;2.90;;
21235;SDS011;10775;42.678;26.324;2023-03-13T08:52:56;7.95;;;2.58;;
21235;SDS011;10775;42.678;26.324;2023-03-13T08:55:21;5.45;;;2.90;;
21235;SDS011;10775;42.678;26.324;2023-03-13T08:57:47;6.07;;;2.50;;
21235;SDS011;10775;42.678;26.324;2023-03-13T09:00:12;6.93;;;2.80;;
21235;SDS011;10775;42.678;26.324;2023-03-13T09:02:39;5.55;;;2.72;;
21235;SDS011;10775;42.678;26.324;2023-03-13T09:05:05;6.60;;;2.65;;
21235;SDS011;10775;42.678;26.324;2023-03-13T09:07:30;4.93;;;2.47;;
21235;SDS011;10775;42.678;26.324;2023-03-13T09:09:56;6.55;;;2.90;;
21235;SDS011;10775;42.678;26.324;2023-03-13T09:12:21;4.18;;;2.03;;
21235;SDS011;10775;42.678;26.324;2023-03-13T09:14:47;14.15;;;3.83;;
21235;SDS011;10775;42.678;26.324;2023-03-13T09:17:12;6.60;;;2.70;;
21235;SDS011;10775;42.678;26.324;2023-03-13T09:19:38;6.85;;;3.03;;
21235;SDS011;10775;42.678;26.324;2023-03-13T09:22:03;5.53;;;2.80;;
21235;SDS011;10775;42.678;26.324;2023-03-13T09:24:29;7.35;;;2.75;;
21235;SDS011;10775;42.678;26.324;2023-03-13T09:26:54;4.70;;;2.60;;
21235;SDS011;10775;42.678;26.324;2023-03-13T09:29:19;7.95;;;3.40;;
21235;SDS011;10775;42.678;26.324;2023-03-13T09:31:45;5.32;;;2.35;;
21235;SDS011;10775;42.678;26.324;2023-03-13T09:34:10;4.22;;;2.03;;
21235;SDS011;10775;42.678;26.324;2023-03-13T09:36:36;15.13;;;5.13;;
21235;SDS011;10775;42.678;26.324;2023-03-13T09:39:01;11.02;;;4.43;;
21235;SDS011;10775;42.678;26.324;2023-03-13T09:41:46;8.30;;;2.83;;
21235;SDS011;10775;42.678;26.324;2023-03-13T09:44:27;4.80;;;2.10;;
21235;SDS011;10775;42.678;26.324;2023-03-13T09:47:02;9.50;;;3.05;;
21235;SDS011;10775;42.678;26.324;2023-03-13T09:49:34;11.75;;;4.18;;
21235;SDS011;10775;42.678;26.324;2023-03-13T09:54:37;6.57;;;2.40;;
21235;SDS011;10775;42.678;26.324;2023-03-13T09:57:19;5.78;;;2.97;;
21235;SDS011;10775;42.678;26.324;2023-03-13T10:00:13;10.02;;;3.60;;
21235;SDS011;10775;42.678;26.324;2023-03-13T10:02:47;12.87;;;5.13;;
21235;SDS011;10775;42.678;26.324;2023-03-13T10:05:25;3.60;;;2.08;;
21235;SDS011;10775;42.678;26.324;2023-03-13T10:07:56;3.35;;;1.77;;
21235;SDS011;10775;42.678;26.324;2023-03-13T10:10:47;5.00;;;3.20;;
21235;SDS011;10775;42.678;26.324;2023-03-13T10:16:22;6.30;;;2.20;;
21235;SDS011;10775;42.678;26.324;2023-03-13T10:18:52;4.03;;;1.85;;
21235;SDS011;10775;42.678;26.324;2023-03-13T10:21:21;4.72;;;2.15;;
21235;SDS011;10775;42.678;26.324;2023-03-13T10:26:20;4.20;;;2.07;;
21235;SDS011;10775;42.678;26.324;2023-03-13T10:28:50;5.43;;;1.98;;
21235;SDS011;10775;42.678;26.324;2023-03-13T10:31:26;3.65;;;2.13;;
21235;SDS011;10775;42.678;26.324;2023-03-13T10:34:07;3.75;;;2.20;;
21235;SDS011;10775;42.678;26.324;2023-03-13T10:36:41;5.15;;;2.13;;
21235;SDS011;10775;42.678;26.324;2023-03-13T10:39:18;5.80;;;3.08;;
21235;SDS011;10775;42.678;26.324;2023-03-13T10:41:47;6.05;;;1.65;;
21235;SDS011;10775;42.678;26.324;2023-03-13T10:44:15;3.28;;;1.60;;
21235;SDS011;10775;42.678;26.324;2023-03-13T10:46:44;4.97;;;2.05;;
21235;SDS011;10775;42.678;26.324;2023-03-13T10:49:14;2.15;;;1.27;;
21235;SDS011;10775;42.678;26.324;2023-03-13T10:51:49;3.95;;;1.80;;
21235;SDS011;10775;42.678;26.324;2023-03-13T10:56:51;2.30;;;1.38;;
21235;SDS011;10775;42.678;26.324;2023-03-13T10:59:32;1.95;;;1.40;;
21235;SDS011;10775;42.678;26.324;2023-03-13T11:02:12;3.47;;;1.73;;
21235;SDS011;10775;42.678;26.324;2023-03-13T11:04:59;2.38;;;1.40;;
21235;SDS011;10775;42.678;26.324;2023-03-13T11:07:32;4.22;;;1.60;;
21235;SDS011;10775;42.678;26.324;2023-03-13T11:10:00;3.92;;;1.88;;
21235;SDS011;10775;42.678;26.324;2023-03-13T11:12:26;6.15;;;2.13;;
21235;SDS011;10775;42.678;26.324;2023-03-13T11:14:56;3.10;;;1.38;;
21235;SDS011;10775;42.678;26.324;2023-03-13T11:20:21;3.15;;;1.02;;
21235;SDS011;10775;42.678;26.324;2023-03-13T11:28:06;4.32;;;1.83;;
21235;SDS011;10775;42.678;26.324;2023-03-13T11:30:53;3.33;;;2.28;;
21235;SDS011;10775;42.678;26.324;2023-03-13T11:33:38;6.47;;;2.75;;
21235;SDS011;10775;42.678;26.324;2023-03-13T11:36:21;4.25;;;1.88;;
21235;SDS011;10775;42.678;26.324;2023-03-13T11:38:54;8.18;;;1.92;;
21235;SDS011;10775;42.678;26.324;2023-03-13T11:41:54;4.60;;;1.70;;
21235;SDS011;10775;42.678;26.324;2023-03-13T11:46:56;2.75;;;1.80;;
21235;SDS011;10775;42.678;26.324;2023-03-13T11:52:23;2.50;;;1.40;;
21235;SDS011;10775;42.678;26.324;2023-03-13T12:00:49;3.95;;;1.42;;
21235;SDS011;10775;42.678;26.324;2023-03-13T12:06:32;1.92;;;1.45;;
21235;SDS011;10775;42.678;26.324;2023-03-13T12:11:38;4.88;;;1.95;;
21235;SDS011;10775;42.678;26.324;2023-03-13T12:17:05;4.78;;;1.63;;
21235;SDS011;10775;42.678;26.324;2023-03-13T12:19:59;3.08;;;2.00;;
21235;SDS011;10775;42.678;26.324;2023-03-13T12:22:53;3.47;;;1.60;;
21235;SDS011;10775;42.678;26.324;2023-03-13T12:25:33;2.58;;;1.88;;
21235;SDS011;10775;42.678;26.324;2023-03-13T12:30:58;5.30;;;1.80;;
21235;SDS011;10775;42.678;26.324;2023-03-13T12:33:29;4.15;;;1.88;;
21235;SDS011;10775;42.678;26.324;2023-03-13T12:36:29;3.95;;;1.80;;
21235;SDS011;10775;42.678;26.324;2023-03-13T12:45:16;2.45;;;1.70;;
21235;SDS011;10775;42.678;26.324;2023-03-13T12:53:44;2.22;;;1.50;;
21235;SDS011;10775;42.678;26.324;2023-03-13T12:59:08;6.13;;;2.88;;
21235;SDS011;10775;42.678;26.324;2023-03-13T13:01:39;3.78;;;1.60;;
21235;SDS011;10775;42.678;26.324;2023-03-13T13:12:20;3.05;;;1.83;;
21235;SDS011;10775;42.678;26.324;2023-03-13T13:17:18;5.70;;;1.60;;
21235;SDS011;10775;42.678;26.324;2023-03-13T13:19:51;2.80;;;1.52;;
21235;SDS011;10775;42.678;26.324;2023-03-13T13:32:50;0.65;;;0.28;;
21235;SDS011;10775;42.678;26.324;2023-03-13T13:36:13;3.28;;;1.92;;
21235;SDS011;10775;42.678;26.324;2023-03-13T13:43:23;3.60;;;1.50;;
21235;SDS011;10775;42.678;26.324;2023-03-13T13:46:35;5.55;;;1.65;;
21235;SDS011;10775;42.678;26.324;2023-03-13T13:49:34;2.85;;;1.20;;
21235;SDS011;10775;42.678;26.324;2023-03-13T13:51:38;3.10;;;1.30;;
21235;SDS011;10775;42.678;26.324;2023-03-13T13:54:29;2.13;;;1.20;;
21235;SDS011;10775;42.678;26.324;2023-03-13T13:56:57;2.38;;;1.38;;
21235;SDS011;10775;42.678;26.324;2023-03-13T13:59:43;3.70;;;1.50;;
21235;SDS011;10775;42.678;26.324;2023-03-13T14:02:13;3.05;;;1.50;;
21235;SDS011;10775;42.678;26.324;2023-03-13T14:04:48;1.65;;;1.08;;
21235;SDS011;10775;42.678;26.324;2023-03-13T14:07:20;2.88;;;1.45;;
21235;SDS011;10775;42.678;26.324;2023-03-13T14:10:02;2.42;;;1.23;;
21235;SDS011;10775;42.678;26.324;2023-03-13T14:17:48;3.50;;;1.48;;
21235;SDS011;10775;42.678;26.324;2023-03-13T14:22:54;1.67;;;1.10;;
21235;SDS011;10775;42.678;26.324;2023-03-13T14:25:22;2.63;;;1.20;;
21235;SDS011;10775;42.678;26.324;2023-03-13T14:27:49;1.95;;;1.40;;
21235;SDS011;10775;42.678;26.324;2023-03-13T14:30:16;2.30;;;1.35;;
21235;SDS011;10775;42.678;26.324;2023-03-13T14:32:43;3.75;;;1.30;;
21235;SDS011;10775;42.678;26.324;2023-03-13T14:35:12;1.67;;;1.15;;
21235;SDS011;10775;42.678;26.324;2023-03-13T14:37:41;3.90;;;1.20;;
21235;SDS011;10775;42.678;26.324;2023-03-13T14:42:44;1.83;;;1.27;;
21235;SDS011;10775;42.678;26.324;2023-03-13T14:45:20;3.47;;;1.38;;
21235;SDS011;10775;42.678;26.324;2023-03-13T14:47:49;2.00;;;1.10;;
21235;SDS011;10775;42.678;26.324;2023-03-13T14:50:16;2.65;;;1.25;;
21235;SDS011;10775;42.678;26.324;2023-03-13T14:52:43;1.80;;;1.05;;
21235;SDS011;10775;42.678;26.324;2023-03-13T14:57:55;4.18;;;1.30;;
21235;SDS011;10775;42.678;26.324;2023-03-13T15:00:44;3.22;;;1.20;;
21235;SDS011;10775;42.678;26.324;2023-03-13T15:05:41;1.60;;;1.20;;
21235;SDS011;10775;42.678;26.324;2023-03-13T15:08:16;4.13;;;1.30;;
21235;SDS011;10775;42.678;26.324;2023-03-13T15:10:46;5.03;;;1.48;;
21235;SDS011;10775;42.678;26.324;2023-03-13T15:13:13;2.85;;;1.10;;
21235;SDS011;10775;42.678;26.324;2023-03-13T15:15:48;5.57;;;1.08;;
21235;SDS011;10775;42.678;26.324;2023-03-13T15:18:22;3.53;;;1.40;;
21235;SDS011;10775;42.678;26.324;2023-03-13T15:20:49;2.25;;;1.15;;
21235;SDS011;10775;42.678;26.324;2023-03-13T15:23:16;4.78;;;1.15;;
21235;SDS011;10775;42.678;26.324;2023-03-13T15:25:43;2.92;;;2.33;;
21235;SDS011;10775;42.678;26.324;2023-03-13T15:28:19;1.90;;;1.10;;
21235;SDS011;10775;42.678;26.324;2023-03-13T15:30:47;2.38;;;1.27;;
21235;SDS011;10775;42.678;26.324;2023-03-13T15:33:15;2.50;;;1.20;;
21235;SDS011;10775;42.678;26.324;2023-03-13T15:35:43;2.17;;;1.10;;
21235;SDS011;10775;42.678;26.324;2023-03-13T15:38:13;2.53;;;1.17;;
21235;SDS011;10775;42.678;26.324;2023-03-13T15:40:41;2.67;;;1.42;;
21235;SDS011;10775;42.678;26.324;2023-03-13T15:43:07;3.40;;;0.95;;
21235;SDS011;10775;42.678;26.324;2023-03-13T15:45:33;2.45;;;1.02;;
21235;SDS011;10775;42.678;26.324;2023-03-13T15:48:00;3.35;;;1.20;;
21235;SDS011;10775;42.678;26.324;2023-03-13T15:50:26;2.65;;;1.20;;
21235;SDS011;10775;42.678;26.324;2023-03-13T15:52:55;4.65;;;1.33;;
21235;SDS011;10775;42.678;26.324;2023-03-13T15:55:23;3.10;;;1.05;;
21235;SDS011;10775;42.678;26.324;2023-03-13T15:57:50;1.80;;;1.27;;
21235;SDS011;10775;42.678;26.324;2023-03-13T16:00:20;4.05;;;1.35;;
21235;SDS011;10775;42.678;26.324;2023-03-13T16:02:47;3.47;;;1.80;;
21235;SDS011;10775;42.678;26.324;2023-03-13T16:05:13;4.03;;;1.48;;
21235;SDS011;10775;42.678;26.324;2023-03-13T16:07:39;3.50;;;1.50;;
21235;SDS011;10775;42.678;26.324;2023-03-13T16:10:06;1.77;;;1.05;;
21235;SDS011;10775;42.678;26.324;2023-03-13T16:12:40;3.63;;;1.45;;
21235;SDS011;10775;42.678;26.324;2023-03-13T16:15:06;2.22;;;1.60;;
21235;SDS011;10775;42.678;26.324;2023-03-13T16:17:32;2.50;;;1.52;;
21235;SDS011;10775;42.678;26.324;2023-03-13T16:19:57;2.22;;;1.10;;
21235;SDS011;10775;42.678;26.324;2023-03-13T16:22:23;2.53;;;1.40;;
21235;SDS011;10775;42.678;26.324;2023-03-13T16:24:48;3.25;;;1.35;;
21235;SDS011;10775;42.678;26.324;2023-03-13T16:27:14;4.63;;;1.42;;
21235;SDS011;10775;42.678;26.324;2023-03-13T16:29:42;2.30;;;1.52;;
21235;SDS011;10775;42.678;26.324;2023-03-13T16:32:12;3.28;;;1.52;;
21235;SDS011;10775;42.678;26.324;2023-03-13T16:34:39;3.10;;;1.60;;
21235;SDS011;10775;42.678;26.324;2023-03-13T16:37:09;3.20;;;1.63;;
21235;SDS011;10775;42.678;26.324;2023-03-13T16:39:38;2.22;;;1.60;;
21235;SDS011;10775;42.678;26.324;2023-03-13T16:42:04;3.55;;;1.50;;